createdAt,value
2022-10-03T00:01:12.904Z,4.93
2022-10-03T00:04:25.806Z,3.40
2022-10-03T00:07:37.997Z,3.30
2022-10-03T00:10:16.466Z,5.65
2022-10-03T00:13:12.966Z,3.50
2022-10-03T00:16:15.006Z,4.20
2022-10-03T00:18:52.440Z,4.20
2022-10-03T00:21:53.411Z,4.50
2022-10-03T00:24:53.276Z,6.20
2022-10-03T00:27:33.929Z,6.80
2022-10-03T00:30:16.906Z,6.93
2022-10-03T00:33:19.259Z,6.60
2022-10-03T00:36:11.946Z,6.53
2022-10-03T00:39:11.202Z,6.87
2022-10-03T00:42:18.958Z,6.20
2022-10-03T00:45:20.530Z,7.40
2022-10-03T00:48:07.642Z,6.45
2022-10-03T00:50:55.421Z,6.90
2022-10-03T00:53:43.657Z,6.40
2022-10-03T00:56:51.337Z,6.10
2022-10-03T00:59:48.234Z,6.80
2022-10-03T01:02:52.503Z,5.85
2022-10-03T01:05:37.445Z,5.40
2022-10-03T01:08:17.465Z,5.27
2022-10-03T01:10:44.458Z,5.63
2022-10-03T01:13:32.623Z,5.72
2022-10-03T01:16:27.448Z,6.40
2022-10-03T01:18:57.243Z,5.90
2022-10-03T01:21:48.230Z,5.50
2022-10-03T01:24:23.932Z,5.50
2022-10-03T01:27:10.331Z,6.80
2022-10-03T01:30:09.260Z,5.60
2022-10-03T01:33:10.570Z,4.82
2022-10-03T01:35:46.768Z,5.45
2022-10-03T01:38:27.057Z,4.80
2022-10-03T01:41:17.113Z,5.50
2022-10-03T01:43:54.721Z,6.65
2022-10-03T01:46:38.422Z,5.13
2022-10-03T01:49:35.747Z,4.70
2022-10-03T01:52:11.640Z,5.05
2022-10-03T01:54:46.441Z,5.00
2022-10-03T01:57:25.602Z,4.90
2022-10-03T02:00:08.485Z,4.30
2022-10-03T02:02:44.079Z,4.75
2022-10-03T02:05:42.884Z,5.00
2022-10-03T02:08:44.754Z,4.80
2022-10-03T02:11:29.360Z,5.45
2022-10-03T02:14:20.093Z,4.80
2022-10-03T02:16:59.726Z,4.90
2022-10-03T02:19:29.714Z,5.18
2022-10-03T02:21:58.958Z,6.93
2022-10-03T02:24:42.385Z,5.57
2022-10-03T02:27:30.638Z,6.28
2022-10-03T02:30:04.024Z,7.45
2022-10-03T02:33:01.613Z,6.45
2022-10-03T02:35:59.248Z,6.70
2022-10-03T02:38:57.070Z,7.68
2022-10-03T02:41:44.756Z,7.15
2022-10-03T02:44:14.429Z,7.65
2022-10-03T02:47:19.600Z,7.18
2022-10-03T02:50:15.455Z,8.95
2022-10-03T02:53:03.673Z,9.23
2022-10-03T02:55:48.834Z,9.00
2022-10-03T02:58:56.917Z,8.90
2022-10-03T03:01:32.482Z,10.50
2022-10-03T03:04:08.508Z,8.98
2022-10-03T03:07:10.844Z,9.77
2022-10-03T03:09:40.549Z,9.32
2022-10-03T03:12:27.258Z,10.02
2022-10-03T03:15:02.885Z,9.55
2022-10-03T03:17:30.963Z,8.98
2022-10-03T03:20:13.803Z,9.00
2022-10-03T03:22:56.797Z,9.02
2022-10-03T03:25:53.146Z,8.40
2022-10-03T03:28:28.702Z,9.00
2022-10-03T03:31:12.784Z,8.45
2022-10-03T03:34:24.031Z,9.18
2022-10-03T03:37:02.105Z,8.63
2022-10-03T03:39:42.221Z,8.45
2022-10-03T03:42:22.334Z,9.10
2022-10-03T03:45:07.670Z,9.30
2022-10-03T03:48:04.907Z,7.90
2022-10-03T03:50:57.242Z,7.75
2022-10-03T03:53:46.386Z,10.68
2022-10-03T03:56:48.312Z,8.55
2022-10-03T03:59:33.306Z,7.43
2022-10-03T04:02:05.231Z,7.60
2022-10-03T04:04:46.177Z,8.23
2022-10-03T04:07:38.909Z,7.80
2022-10-03T04:10:17.668Z,7.60
2022-10-03T04:13:16.945Z,7.97
2022-10-03T04:16:49.742Z,7.25
2022-10-03T04:19:26.077Z,8.20
2022-10-03T04:22:04.973Z,7.70
2022-10-03T04:24:44.064Z,7.90
2022-10-03T04:27:25.933Z,7.10
2022-10-03T04:30:07.957Z,7.20
2022-10-03T04:32:46.590Z,6.85
2022-10-03T04:35:44.156Z,8.43
2022-10-03T04:38:46.886Z,7.90
2022-10-03T04:41:27.726Z,6.50
2022-10-03T04:43:58.466Z,5.60
2022-10-03T04:46:49.584Z,6.30
2022-10-03T04:49:36.587Z,6.57
2022-10-03T04:52:45.946Z,6.90
2022-10-03T04:55:15.949Z,5.50
2022-10-03T04:57:47.670Z,5.70
2022-10-03T05:00:23.604Z,5.45
2022-10-03T05:03:11.357Z,6.28
2022-10-03T05:05:56.730Z,7.13
2022-10-03T05:09:04.553Z,5.53
2022-10-03T05:11:37.683Z,6.10
2022-10-03T05:14:49.967Z,6.83
2022-10-03T05:17:37.317Z,5.85
2022-10-03T05:20:37.850Z,6.13
2022-10-03T05:23:15.036Z,5.40
2022-10-03T05:29:45.389Z,5.68
2022-10-03T05:32:38.610Z,5.00
2022-10-03T05:35:14.116Z,6.70
2022-10-03T05:37:59.321Z,5.70
2022-10-03T05:40:28.941Z,7.60
2022-10-03T05:43:01.390Z,6.30
2022-10-03T05:45:46.760Z,4.93
2022-10-03T05:48:37.975Z,5.78
2022-10-03T05:51:39.519Z,5.82
2022-10-03T05:54:27.401Z,5.45
2022-10-03T05:57:15.390Z,6.00
2022-10-03T06:00:00.173Z,7.18
2022-10-03T06:02:51.060Z,5.85
2022-10-03T06:05:39.281Z,5.32
2022-10-03T06:08:35.182Z,5.00
2022-10-03T06:11:14.315Z,5.90
2022-10-03T06:13:43.866Z,5.60
2022-10-03T06:16:37.892Z,4.72
2022-10-03T06:19:23.502Z,5.60
2022-10-03T06:22:27.801Z,5.38
2022-10-03T06:25:20.085Z,5.28
2022-10-03T06:28:20.454Z,6.10
2022-10-03T06:31:18.551Z,6.70
2022-10-03T06:34:09.992Z,5.70
2022-10-03T06:36:49.698Z,5.60
2022-10-03T06:39:58.682Z,5.20
2022-10-03T06:42:50.427Z,5.72
2022-10-03T06:45:40.728Z,5.80
2022-10-03T06:48:22.582Z,6.18
2022-10-03T06:51:30.464Z,5.55
2022-10-03T06:54:34.537Z,5.70
2022-10-03T06:57:45.561Z,7.72
2022-10-03T07:00:38.750Z,7.82
2022-10-03T07:03:18.774Z,6.35
2022-10-03T07:06:20.314Z,8.20
2022-10-03T07:09:08.501Z,10.43
2022-10-03T07:11:44.106Z,7.10
2022-10-03T07:14:35.298Z,10.60
2022-10-03T07:17:22.963Z,12.17
2022-10-03T07:20:02.862Z,16.00
2022-10-03T07:23:00.159Z,10.35
2022-10-03T07:25:48.269Z,11.20
2022-10-03T07:28:49.986Z,11.95
2022-10-03T07:31:55.821Z,11.23
2022-10-03T07:34:41.316Z,8.73
2022-10-03T07:37:35.569Z,14.32
2022-10-03T07:40:05.821Z,16.40
2022-10-03T07:42:47.916Z,7.97
2022-10-03T07:45:37.486Z,9.45
2022-10-03T07:48:41.012Z,13.90
2022-10-03T07:51:26.113Z,14.30
2022-10-03T07:54:14.075Z,26.83
2022-10-03T07:57:00.682Z,10.18
2022-10-03T08:00:06.718Z,12.32
2022-10-03T08:03:04.155Z,16.23
2022-10-03T08:05:54.595Z,8.25
2022-10-03T08:08:56.953Z,8.40
2022-10-03T08:11:26.621Z,6.60
2022-10-03T08:14:20.659Z,7.20
2022-10-03T08:17:14.186Z,6.35
2022-10-03T08:20:05.658Z,6.78
2022-10-03T08:22:47.468Z,6.80
2022-10-03T08:25:14.630Z,5.90
2022-10-03T08:27:44.617Z,5.67
2022-10-03T08:30:25.346Z,6.10
2022-10-03T08:33:14.283Z,4.55
2022-10-03T08:36:28.858Z,4.70
2022-10-03T08:39:14.008Z,4.35
2022-10-03T08:42:22.837Z,5.10
2022-10-03T08:45:11.498Z,6.22
2022-10-03T08:48:13.946Z,5.63
2022-10-03T08:50:49.217Z,5.63
2022-10-03T08:53:37.670Z,5.30
2022-10-03T08:56:27.211Z,5.53
2022-10-03T08:58:57.000Z,5.00
2022-10-03T09:01:29.751Z,5.10
2022-10-03T09:04:22.674Z,6.40
2022-10-03T09:07:28.030Z,5.07
2022-10-03T09:10:19.344Z,5.30
2022-10-03T09:12:46.214Z,6.20
2022-10-03T09:15:41.302Z,5.87
2022-10-03T09:18:45.866Z,4.45
2022-10-03T09:21:33.777Z,5.35
2022-10-03T09:24:25.371Z,5.30
2022-10-03T09:27:14.678Z,4.50
2022-10-03T09:29:59.742Z,5.40
2022-10-03T09:32:54.366Z,5.63
2022-10-03T09:35:52.090Z,4.53
2022-10-03T09:38:37.577Z,5.45
2022-10-03T09:41:25.612Z,4.40
2022-10-03T09:44:11.260Z,5.00
2022-10-03T09:47:27.868Z,4.50
2022-10-03T09:50:12.698Z,4.20
2022-10-03T09:52:50.092Z,4.30
2022-10-03T09:55:36.397Z,4.77
2022-10-03T09:58:25.231Z,4.40
2022-10-03T10:01:00.652Z,4.47
2022-10-03T10:03:49.245Z,3.90
2022-10-03T10:06:34.700Z,4.50
2022-10-03T10:09:22.381Z,4.13
2022-10-03T10:12:26.703Z,4.18
2022-10-03T10:15:08.734Z,4.20
2022-10-03T10:17:56.291Z,4.45
2022-10-03T10:21:01.086Z,5.00
2022-10-03T10:23:46.893Z,4.63
2022-10-03T10:26:35.157Z,4.50
2022-10-03T10:29:08.849Z,5.10
2022-10-03T10:31:45.157Z,4.93
2022-10-03T10:34:30.600Z,4.78
2022-10-03T10:37:33.093Z,4.80
2022-10-03T10:40:12.673Z,5.30
2022-10-03T10:43:14.802Z,4.53
2022-10-03T10:45:57.422Z,4.45
2022-10-03T10:48:48.596Z,4.20
2022-10-03T13:01:46.781Z,5.70
2022-10-03T13:04:19.843Z,6.50
2022-10-03T13:07:05.805Z,5.43
2022-10-03T13:09:32.987Z,6.40
2022-10-03T13:12:11.681Z,5.20
2022-10-03T13:15:16.489Z,5.05
2022-10-03T13:18:00.954Z,5.30
2022-10-03T13:20:34.533Z,5.57
2022-10-03T13:23:26.117Z,5.50
2022-10-03T13:25:56.850Z,5.73
2022-10-03T13:28:49.925Z,5.00
2022-10-03T13:31:43.429Z,5.90
2022-10-03T13:34:20.606Z,5.40
2022-10-03T13:37:04.956Z,5.82
2022-10-03T13:39:42.556Z,5.75
2022-10-03T13:42:16.805Z,5.50
2022-10-03T13:44:57.357Z,6.47
2022-10-03T13:47:55.711Z,5.43
2022-10-03T13:50:31.093Z,6.10
2022-10-03T13:53:23.941Z,7.25
2022-10-03T13:56:01.641Z,5.60
2022-10-03T13:58:40.057Z,5.97
2022-10-03T14:01:35.070Z,7.40
2022-10-03T14:04:07.679Z,5.70
2022-10-03T14:07:09.666Z,5.85
2022-10-03T14:09:42.142Z,8.38
2022-10-03T14:12:15.101Z,6.75
2022-10-03T14:15:15.344Z,7.93
2022-10-03T14:18:01.787Z,7.10
2022-10-03T14:20:39.638Z,6.43
2022-10-03T14:23:37.628Z,6.45
2022-10-03T14:26:32.917Z,6.57
2022-10-03T14:29:21.402Z,6.68
2022-10-03T14:32:28.367Z,6.22
2022-10-03T14:35:37.846Z,6.25
2022-10-03T14:38:23.640Z,6.70
2022-10-03T14:40:57.054Z,7.18
2022-10-03T14:43:46.250Z,7.35
2022-10-03T14:46:15.837Z,6.63
2022-10-03T14:48:50.168Z,6.75
2022-10-03T14:51:30.627Z,7.50
2022-10-03T14:54:05.702Z,6.80
2022-10-03T14:56:44.297Z,7.60
2022-10-03T14:59:33.839Z,6.57
2022-10-03T15:02:22.828Z,7.55
2022-10-03T15:04:53.851Z,6.90
2022-10-03T15:07:36.246Z,7.50
2022-10-03T15:10:07.301Z,8.10
2022-10-03T15:12:36.878Z,6.97
2022-10-03T15:15:12.865Z,7.43
2022-10-03T15:17:53.406Z,8.57
2022-10-03T15:20:26.833Z,7.40
2022-10-03T15:23:01.162Z,8.27
2022-10-03T15:25:41.491Z,6.95
2022-10-03T15:28:23.051Z,7.18
2022-10-03T15:30:52.446Z,8.10
2022-10-03T15:33:22.409Z,6.90
2022-10-03T15:35:55.021Z,7.30
2022-10-03T15:38:26.549Z,7.47
2022-10-03T15:41:07.098Z,6.45
2022-10-03T15:43:58.028Z,6.10
2022-10-03T15:46:34.827Z,6.70
2022-10-03T15:49:07.441Z,6.57
2022-10-03T15:51:38.577Z,7.70
2022-10-03T15:54:09.212Z,6.82
2022-10-03T15:56:46.066Z,6.43
2022-10-03T15:59:28.341Z,6.55
2022-10-03T16:01:56.537Z,7.22
2022-10-03T16:04:25.086Z,7.50
2022-10-03T16:07:03.203Z,7.53
2022-10-03T16:09:36.770Z,6.17
2022-10-03T16:12:03.846Z,6.80
2022-10-03T16:14:51.450Z,8.48
2022-10-03T16:17:21.160Z,6.80
2022-10-03T16:20:17.840Z,8.03
2022-10-03T16:22:57.270Z,7.07
2022-10-03T16:25:59.701Z,6.53
2022-10-03T16:28:45.293Z,7.00
2022-10-03T16:31:22.503Z,6.90
2022-10-03T16:33:59.860Z,8.15
2022-10-03T16:36:27.121Z,6.88
2022-10-03T16:39:00.029Z,5.95
2022-10-03T16:41:31.846Z,6.20
2022-10-03T16:44:18.303Z,6.47
2022-10-03T16:46:46.558Z,7.60
2022-10-03T16:49:44.028Z,6.63
2022-10-03T16:52:13.649Z,6.78
2022-10-03T16:54:43.892Z,7.43
2022-10-03T16:57:52.711Z,8.43
2022-10-03T17:00:56.302Z,7.35
2022-10-03T17:03:55.065Z,6.33
2022-10-03T17:06:30.325Z,7.35
2022-10-03T17:09:02.690Z,7.50
2022-10-03T17:11:34.324Z,7.78
2022-10-03T17:14:05.549Z,6.80
2022-10-03T17:16:44.074Z,6.50
2022-10-03T17:19:32.286Z,6.45
2022-10-03T17:22:33.782Z,7.30
2022-10-03T17:25:18.655Z,6.70
2022-10-03T17:27:49.678Z,9.63
2022-10-03T17:30:40.002Z,7.65
2022-10-03T17:33:35.890Z,6.37
2022-10-03T17:36:20.707Z,6.63
2022-10-03T17:38:51.458Z,9.35
2022-10-03T17:41:32.193Z,7.43
2022-10-03T17:44:12.057Z,6.22
2022-10-03T17:46:58.399Z,7.00
2022-10-03T17:49:38.827Z,8.23
2022-10-03T17:52:12.456Z,8.10
2022-10-03T17:54:40.554Z,7.15
2022-10-03T17:57:24.176Z,7.82
2022-10-03T17:59:59.005Z,7.65
2022-10-03T18:02:49.223Z,7.90
2022-10-03T18:05:20.641Z,6.45
2022-10-03T18:07:51.126Z,7.90
2022-10-03T18:10:31.238Z,8.80
2022-10-03T18:13:02.070Z,6.90
2022-10-03T18:15:49.070Z,7.72
2022-10-03T18:18:28.489Z,6.40
2022-10-03T18:21:27.384Z,9.40
2022-10-03T18:23:55.607Z,8.65
2022-10-03T18:26:35.281Z,7.03
2022-10-03T18:29:04.934Z,8.10
2022-10-03T18:31:35.265Z,7.40
2022-10-03T18:34:15.112Z,7.15
2022-10-03T18:36:49.552Z,8.23
2022-10-03T18:39:29.834Z,9.02
2022-10-03T18:42:02.123Z,6.60
2022-10-03T18:44:32.533Z,8.90
2022-10-03T18:47:02.208Z,9.15
2022-10-03T18:49:34.555Z,7.53
2022-10-03T18:52:10.516Z,8.63
2022-10-03T18:54:50.434Z,8.07
2022-10-03T18:57:25.332Z,8.75
2022-10-03T19:00:01.872Z,8.38
2022-10-03T19:02:44.605Z,9.77
2022-10-03T19:05:35.421Z,9.23
2022-10-03T19:08:08.237Z,10.67
2022-10-03T19:11:08.845Z,10.93
2022-10-03T19:13:58.373Z,11.15
2022-10-03T19:16:45.235Z,11.10
2022-10-03T19:19:23.537Z,9.80
2022-10-03T19:21:50.879Z,9.80
2022-10-03T19:24:46.209Z,10.60
2022-10-03T19:27:33.471Z,8.20
2022-10-03T19:30:00.482Z,9.50
2022-10-03T19:32:47.757Z,9.00
2022-10-03T19:35:19.898Z,11.43
2022-10-03T19:38:03.847Z,8.63
2022-10-03T19:41:00.164Z,9.80
2022-10-03T19:43:37.416Z,8.45
2022-10-03T19:46:11.450Z,9.63
2022-10-03T19:49:03.486Z,8.18
2022-10-03T19:51:30.370Z,7.93
2022-10-03T19:53:58.101Z,9.43
2022-10-03T19:56:27.046Z,8.27
2022-10-03T19:59:13.627Z,10.30
2022-10-03T20:01:48.961Z,8.80
2022-10-03T20:04:31.894Z,9.75
2022-10-03T20:06:59.519Z,8.80
2022-10-03T20:09:28.423Z,9.17
2022-10-03T20:12:05.918Z,9.02
2022-10-03T20:14:43.395Z,9.90
2022-10-03T20:17:20.530Z,9.57
2022-10-03T20:19:47.539Z,8.85
2022-10-03T20:22:15.061Z,10.23
2022-10-03T20:24:45.926Z,9.00
2022-10-03T20:27:18.390Z,8.60
2022-10-03T20:30:07.118Z,9.10
2022-10-03T20:32:39.009Z,8.13
2022-10-03T20:35:06.613Z,9.02
2022-10-03T20:37:36.962Z,8.43
2022-10-03T20:40:19.033Z,8.10
2022-10-03T20:42:48.319Z,8.50
2022-10-03T20:45:25.597Z,7.40
2022-10-03T20:48:06.241Z,8.65
2022-10-03T20:50:50.474Z,8.45
2022-10-03T20:53:20.711Z,7.63
2022-10-03T20:55:59.730Z,8.10
2022-10-03T20:58:56.914Z,7.13
2022-10-03T21:01:26.923Z,7.78
2022-10-03T21:04:02.696Z,7.22
2022-10-03T21:06:37.139Z,8.20
2022-10-03T21:09:06.625Z,7.77
2022-10-03T21:11:38.603Z,6.97
2022-10-03T21:14:19.782Z,8.13
2022-10-03T21:16:50.921Z,8.45
2022-10-03T21:19:26.238Z,7.67
2022-10-03T21:21:59.127Z,7.85
2022-10-03T21:24:30.839Z,8.10
2022-10-03T21:27:01.647Z,7.68
2022-10-03T21:29:31.775Z,7.90
2022-10-03T21:32:19.537Z,8.52
2022-10-03T21:35:01.112Z,7.20
2022-10-03T21:37:35.764Z,7.57
2022-10-03T21:40:12.981Z,7.60
2022-10-03T21:43:14.923Z,7.32
2022-10-03T21:45:56.637Z,8.88
2022-10-03T21:48:38.285Z,9.47
2022-10-03T21:51:33.087Z,9.20
2022-10-03T21:54:27.718Z,8.25
2022-10-03T21:57:20.176Z,7.90
2022-10-03T21:59:49.752Z,8.50
2022-10-03T22:02:43.710Z,8.45
2022-10-03T22:05:18.121Z,7.55
2022-10-03T22:07:46.148Z,8.05
2022-10-03T22:10:34.858Z,8.10
2022-10-03T22:13:09.421Z,7.25
2022-10-03T22:15:48.735Z,7.27
2022-10-03T22:18:19.370Z,8.82
2022-10-03T22:21:15.153Z,8.55
2022-10-03T22:24:02.873Z,9.27
2022-10-03T22:26:41.226Z,8.40
2022-10-03T22:29:37.896Z,8.20
2022-10-03T22:32:34.107Z,8.43
2022-10-03T22:35:27.717Z,7.75
2022-10-03T22:37:56.697Z,8.48
2022-10-03T22:40:24.699Z,9.13
2022-10-03T22:42:56.491Z,7.90
2022-10-03T22:45:29.715Z,7.47
2022-10-03T22:48:00.526Z,8.50
2022-10-03T22:50:33.310Z,8.85
2022-10-03T22:53:02.628Z,8.10
2022-10-03T22:55:30.522Z,7.80
2022-10-03T22:58:00.237Z,10.02
2022-10-03T23:00:32.255Z,7.97
2022-10-03T23:03:23.814Z,8.80
2022-10-03T23:06:09.357Z,8.60
2022-10-03T23:08:50.886Z,9.15
2022-10-03T23:11:27.441Z,9.23
2022-10-03T23:13:57.839Z,8.60
2022-10-03T23:16:36.614Z,8.70
2022-10-03T23:19:33.851Z,8.40
2022-10-03T23:22:01.103Z,7.68
2022-10-03T23:24:27.937Z,8.10
2022-10-03T23:27:04.484Z,7.78
2022-10-03T23:29:31.519Z,7.97
2022-10-03T23:32:04.181Z,8.63
2022-10-03T23:34:40.014Z,7.97
2022-10-03T23:37:15.421Z,10.60
2022-10-03T23:40:20.250Z,8.07
2022-10-03T23:43:14.438Z,8.98
2022-10-03T23:45:43.064Z,8.73
2022-10-03T23:48:16.956Z,8.43
2022-10-03T23:51:01.379Z,8.68
2022-10-03T23:53:44.498Z,8.37
2022-10-03T23:56:23.603Z,6.70
2022-10-03T23:59:05.174Z,7.05
